sim
Sign-in with your pilot id or email,
or register
Callsign
Passwort

Schedule Details

Flight Number: OEC538
Departure: Delhi Indira Gandhi International Airport (VIDP) at Time
Arrival: Gothenburg Landvetter Airport (ESGG) at Time

Weather Information
Getting current METAR information for VIDP 291900Z 00000KT 1600 R28/P2000 R29/P2000 FU NSC 18/13 Q1014 NOSIG
Getting current METAR information for ESGG 291850Z 22003KT 9999 R03/0650N R21/0650N FEW017 04/03 Q1008

Schedule Frequency

Route Map